createdAt,value
2022-11-06T00:01:19.368Z,14.45
2022-11-06T00:03:55.560Z,16.02
2022-11-06T00:06:46.459Z,15.80
2022-11-06T00:09:21.142Z,14.48
2022-11-06T00:11:53.420Z,15.18
2022-11-06T00:14:25.791Z,19.48
2022-11-06T00:16:57.872Z,16.60
2022-11-06T00:19:29.883Z,17.92
2022-11-06T00:22:02.218Z,16.58
2022-11-06T00:24:34.325Z,16.58
2022-11-06T00:27:06.472Z,17.80
2022-11-06T00:29:38.560Z,15.80
2022-11-06T00:32:10.791Z,15.23
2022-11-06T00:34:43.036Z,16.02
2022-11-06T00:37:15.179Z,17.33
2022-11-06T00:39:47.130Z,16.92
2022-11-06T00:42:19.182Z,16.02
2022-11-06T00:44:51.154Z,15.30
2022-11-06T00:47:23.351Z,14.93
2022-11-06T00:49:55.454Z,14.65
2022-11-06T00:52:30.048Z,15.23
2022-11-06T00:55:02.012Z,16.00
2022-11-06T00:57:34.009Z,16.70
2022-11-06T01:00:07.306Z,13.77
2022-11-06T01:02:39.760Z,13.50
2022-11-06T01:05:13.017Z,15.18
2022-11-06T01:07:45.066Z,14.05
2022-11-06T01:10:17.128Z,13.38
2022-11-06T01:12:49.307Z,13.68
2022-11-06T01:15:21.383Z,15.95
2022-11-06T01:17:53.385Z,13.40
2022-11-06T01:20:25.442Z,13.25
2022-11-06T01:22:57.422Z,14.95
2022-11-06T01:25:29.462Z,13.40
2022-11-06T01:28:01.711Z,14.02
2022-11-06T01:30:37.410Z,13.50
2022-11-06T01:33:09.367Z,14.00
2022-11-06T01:35:48.894Z,15.93
2022-11-06T01:38:20.930Z,14.98
2022-11-06T01:40:54.241Z,13.45
2022-11-06T01:43:46.492Z,14.05
2022-11-06T01:46:19.965Z,14.50
2022-11-06T01:48:55.861Z,12.50
2022-11-06T01:51:31.124Z,11.63
2022-11-06T01:54:08.694Z,11.27
2022-11-06T01:56:42.843Z,11.32
2022-11-06T01:59:18.119Z,12.20
2022-11-06T02:01:51.333Z,10.85
2022-11-06T02:04:26.591Z,10.45
2022-11-06T02:06:59.885Z,10.77
2022-11-06T02:09:34.196Z,11.68
2022-11-06T02:12:15.697Z,12.07
2022-11-06T02:15:17.659Z,11.35
2022-11-06T02:18:22.045Z,12.45
2022-11-06T02:24:13.109Z,9.93
2022-11-06T02:27:04.161Z,10.07
2022-11-06T02:29:45.815Z,11.48
2022-11-06T02:32:29.119Z,10.07
2022-11-06T02:35:06.057Z,10.82
2022-11-06T02:37:40.568Z,10.30
2022-11-06T02:40:14.893Z,8.95
2022-11-06T02:42:50.608Z,9.93
2022-11-06T02:45:25.249Z,9.18
2022-11-06T02:47:59.187Z,9.48
2022-11-06T02:50:35.544Z,8.55
2022-11-06T02:53:10.419Z,8.93
2022-11-06T02:55:48.531Z,9.73
2022-11-06T02:58:24.801Z,10.68
2022-11-06T03:01:06.716Z,8.73
2022-11-06T03:03:43.809Z,8.18
2022-11-06T03:06:31.662Z,7.38
2022-11-06T03:09:09.658Z,8.27
2022-11-06T03:11:41.972Z,7.40
2022-11-06T03:14:38.249Z,8.57
2022-11-06T03:17:27.081Z,9.13
2022-11-06T03:20:08.370Z,8.23
2022-11-06T03:23:01.989Z,9.10
2022-11-06T03:25:59.862Z,8.98
2022-11-06T03:28:47.712Z,10.38
2022-11-06T03:31:30.283Z,7.60
2022-11-06T03:34:07.544Z,7.55
2022-11-06T03:36:47.415Z,8.23
2022-11-06T03:39:27.616Z,7.93
2022-11-06T03:42:05.518Z,7.88
2022-11-06T03:44:43.906Z,8.13
2022-11-06T03:47:21.174Z,8.48
2022-11-06T03:50:17.271Z,6.97
2022-11-06T03:53:17.216Z,7.95
2022-11-06T03:55:55.163Z,8.57
2022-11-06T03:58:32.760Z,10.05
2022-11-06T04:01:08.646Z,11.65
2022-11-06T04:03:56.885Z,9.52
2022-11-06T04:06:42.409Z,9.20
2022-11-06T04:09:36.806Z,8.20
2022-11-06T04:12:30.545Z,8.45
2022-11-06T04:15:03.429Z,7.97
2022-11-06T04:17:36.229Z,8.05
2022-11-06T04:20:33.163Z,8.40
2022-11-06T04:23:20.213Z,8.52
2022-11-06T04:26:37.129Z,9.18
2022-11-06T04:29:41.413Z,8.40
2022-11-06T04:32:22.333Z,9.20
2022-11-06T04:35:12.689Z,9.52
2022-11-06T04:38:11.125Z,9.38
2022-11-06T04:41:19.343Z,11.18
2022-11-06T04:44:17.874Z,10.82
2022-11-06T04:46:57.302Z,7.68
2022-11-06T04:49:33.598Z,8.32
2022-11-06T04:52:09.972Z,8.93
2022-11-06T04:54:42.389Z,8.70
2022-11-06T04:57:14.468Z,8.20
2022-11-06T04:59:46.900Z,8.50
2022-11-06T05:02:19.201Z,7.60
2022-11-06T05:04:51.351Z,9.88
2022-11-06T05:07:23.690Z,7.43
2022-11-06T05:09:55.698Z,7.43
2022-11-06T05:12:27.690Z,7.75
2022-11-06T05:14:59.971Z,8.77
2022-11-06T05:17:36.293Z,7.90
2022-11-06T05:20:08.923Z,7.38
2022-11-06T05:23:00.993Z,9.63
2022-11-06T05:25:35.643Z,11.73
2022-11-06T05:28:08.904Z,8.60
2022-11-06T05:30:40.877Z,8.85
2022-11-06T05:33:12.850Z,9.00
2022-11-06T05:35:45.080Z,8.30
2022-11-06T05:38:17.937Z,7.80
2022-11-06T05:40:49.996Z,7.97
2022-11-06T05:43:22.034Z,6.88
2022-11-06T05:45:54.255Z,8.10
2022-11-06T05:48:27.511Z,8.23
2022-11-06T05:51:06.908Z,9.48
2022-11-06T05:53:39.051Z,7.18
2022-11-06T05:56:11.215Z,8.05
2022-11-06T05:58:43.300Z,9.65
2022-11-06T06:01:15.617Z,7.22
2022-11-06T06:03:47.724Z,9.38
2022-11-06T06:06:20.915Z,8.00
2022-11-06T06:08:52.998Z,11.02
2022-11-06T06:11:25.072Z,9.75
2022-11-06T06:13:57.086Z,9.23
2022-11-06T06:16:29.554Z,10.02
2022-11-06T06:19:01.706Z,9.73
2022-11-06T06:21:33.802Z,8.65
2022-11-06T06:24:07.017Z,7.82
2022-11-06T06:26:39.058Z,9.20
2022-11-06T06:29:11.104Z,8.82
2022-11-06T06:31:43.319Z,9.10
2022-11-06T06:34:15.836Z,12.93
2022-11-06T06:36:52.493Z,9.30
2022-11-06T06:39:24.913Z,8.85
2022-11-06T06:41:57.154Z,8.98
2022-11-06T06:44:29.274Z,7.82
2022-11-06T06:47:01.528Z,8.10
2022-11-06T06:49:33.608Z,10.82
2022-11-06T06:52:05.978Z,12.68
2022-11-06T06:54:38.029Z,10.77
2022-11-06T06:57:10.419Z,11.15
2022-11-06T06:59:42.610Z,11.30
2022-11-06T07:02:14.931Z,12.20
2022-11-06T07:04:47.105Z,12.65
2022-11-06T07:07:19.153Z,14.70
2022-11-06T07:09:52.347Z,16.73
2022-11-06T07:12:24.464Z,13.75
2022-11-06T07:14:56.666Z,16.83
2022-11-06T07:17:28.893Z,15.95
2022-11-06T07:20:01.163Z,15.18
2022-11-06T07:22:37.260Z,14.30
2022-11-06T07:25:09.953Z,15.38
2022-11-06T07:27:41.993Z,15.18
2022-11-06T07:30:14.126Z,14.90
2022-11-06T07:32:46.423Z,14.73
2022-11-06T07:35:18.472Z,13.98
2022-11-06T07:37:50.590Z,15.75
2022-11-06T07:40:22.961Z,15.25
2022-11-06T07:42:55.027Z,17.15
2022-11-06T07:45:27.035Z,14.32
2022-11-06T07:47:59.583Z,16.88
2022-11-06T07:50:32.367Z,15.45
2022-11-06T07:53:04.810Z,19.02
2022-11-06T07:55:41.969Z,18.10
2022-11-06T07:58:15.047Z,19.88
2022-11-06T08:00:55.466Z,17.60
2022-11-06T08:03:30.551Z,21.08
2022-11-06T08:06:07.559Z,20.00
2022-11-06T08:08:39.557Z,18.48
2022-11-06T08:11:12.258Z,20.88
2022-11-06T08:13:44.469Z,18.50
2022-11-06T08:16:16.799Z,18.95
2022-11-06T08:18:49.064Z,18.40
2022-11-06T08:21:21.388Z,17.13
2022-11-06T08:23:53.810Z,17.95
2022-11-06T08:26:26.773Z,17.60
2022-11-06T08:28:59.107Z,17.23
2022-11-06T08:31:31.387Z,16.50
2022-11-06T08:34:03.582Z,15.88
2022-11-06T08:36:49.503Z,15.60
2022-11-06T08:39:21.903Z,13.13
2022-11-06T08:41:53.983Z,12.85
2022-11-06T08:44:26.126Z,14.68
2022-11-06T08:46:58.121Z,12.98
2022-11-06T08:49:30.769Z,13.82
2022-11-06T08:52:02.766Z,11.40
2022-11-06T08:54:35.019Z,11.77
2022-11-06T08:57:07.210Z,10.80
2022-11-06T08:59:39.365Z,12.63
2022-11-06T09:02:13.385Z,12.63
2022-11-06T09:04:46.167Z,11.63
2022-11-06T09:07:18.526Z,10.57
2022-11-06T09:09:50.506Z,11.02
2022-11-06T09:12:22.606Z,10.57
2022-11-06T09:14:54.662Z,10.05
2022-11-06T09:17:26.703Z,10.32
2022-11-06T09:19:58.724Z,8.88
2022-11-06T09:22:31.040Z,9.55
2022-11-06T09:25:04.515Z,8.82
2022-11-06T09:27:47.218Z,8.65
2022-11-06T09:30:22.123Z,9.75
2022-11-06T09:32:56.978Z,9.15
2022-11-06T09:35:31.663Z,12.02
2022-11-06T09:38:11.330Z,12.57
2022-11-06T09:40:56.528Z,11.90
2022-11-06T09:46:46.581Z,10.25
2022-11-06T09:49:31.184Z,10.48
2022-11-06T09:52:13.573Z,10.05
2022-11-06T09:54:57.868Z,10.00
2022-11-06T09:57:34.387Z,8.77
2022-11-06T10:00:08.361Z,8.75
2022-11-06T10:02:47.454Z,8.75
2022-11-06T10:05:30.697Z,8.43
2022-11-06T10:08:13.329Z,7.65
2022-11-06T10:11:07.616Z,7.47
2022-11-06T10:14:03.818Z,8.40
2022-11-06T10:16:49.672Z,8.55
2022-11-06T10:19:37.000Z,7.95
2022-11-06T10:22:16.583Z,6.82
2022-11-06T10:25:07.522Z,7.00
2022-11-06T10:27:44.059Z,6.45
2022-11-06T10:30:18.979Z,6.13
2022-11-06T10:33:26.645Z,6.05
2022-11-06T10:36:06.045Z,6.03
2022-11-06T10:38:41.213Z,7.65
2022-11-06T10:41:19.390Z,5.50
2022-11-06T10:43:57.620Z,5.95
2022-11-06T10:46:46.708Z,6.10
2022-11-06T10:49:40.132Z,5.88
2022-11-06T10:52:20.991Z,5.23
2022-11-06T10:55:37.023Z,5.40
2022-11-06T10:58:14.022Z,5.57
2022-11-06T11:00:46.771Z,5.50
2022-11-06T11:03:46.955Z,5.57
2022-11-06T11:06:19.208Z,6.93
2022-11-06T11:08:52.408Z,7.63
2022-11-06T11:11:28.702Z,9.23
2022-11-06T11:14:00.857Z,8.85
2022-11-06T11:16:38.004Z,8.55
2022-11-06T11:19:41.603Z,9.55
2022-11-06T11:22:17.295Z,8.43
2022-11-06T11:25:07.113Z,7.75
2022-11-06T11:27:44.473Z,6.90
2022-11-06T11:30:22.972Z,6.65
2022-11-06T11:32:56.314Z,6.00
2022-11-06T11:35:30.914Z,6.20
2022-11-06T11:38:14.468Z,5.45
2022-11-06T11:40:47.299Z,5.03
2022-11-06T11:43:24.321Z,5.43
2022-11-06T11:46:09.404Z,5.60
2022-11-06T11:48:49.169Z,5.28
2022-11-06T11:51:39.821Z,4.97
2022-11-06T11:54:11.821Z,5.07
2022-11-06T11:57:04.671Z,6.15
2022-11-06T11:59:48.840Z,5.13
2022-11-06T12:02:40.784Z,4.78
2022-11-06T12:05:16.718Z,4.95
2022-11-06T12:07:59.257Z,4.82
2022-11-06T12:10:34.341Z,5.35
2022-11-06T12:13:19.724Z,5.07
2022-11-06T12:16:19.818Z,4.88
2022-11-06T12:18:58.921Z,4.45
2022-11-06T12:21:36.275Z,5.07
2022-11-06T12:24:41.663Z,5.15
2022-11-06T12:27:25.191Z,4.50
2022-11-06T12:30:07.872Z,4.68
2022-11-06T12:32:57.363Z,4.07
2022-11-06T12:35:41.855Z,4.22
2022-11-06T12:38:26.217Z,4.00
2022-11-06T12:41:06.869Z,3.97
2022-11-06T12:43:50.134Z,4.25
2022-11-06T12:46:52.980Z,3.97
2022-11-06T12:49:28.089Z,4.15
2022-11-06T12:52:09.240Z,4.45
2022-11-06T12:55:09.988Z,4.20
2022-11-06T12:58:00.806Z,4.03
2022-11-06T13:00:49.575Z,4.40
2022-11-06T13:03:27.644Z,3.97
2022-11-06T13:06:25.755Z,4.03
2022-11-06T13:09:24.558Z,4.45
2022-11-06T13:12:19.237Z,4.40
2022-11-06T13:15:20.607Z,4.32
2022-11-06T13:18:15.920Z,3.97
2022-11-06T13:21:20.494Z,3.97
2022-11-06T13:23:58.963Z,3.45
2022-11-06T13:26:39.291Z,4.10
2022-11-06T13:29:14.967Z,3.53
2022-11-06T13:31:59.340Z,3.88
2022-11-06T13:34:35.471Z,3.70
2022-11-06T13:37:14.803Z,3.65
2022-11-06T13:39:49.615Z,3.40
2022-11-06T13:42:34.797Z,3.75
2022-11-06T13:45:09.380Z,3.60
2022-11-06T13:47:53.473Z,3.10
2022-11-06T13:50:44.381Z,3.25
2022-11-06T13:53:22.395Z,3.03
2022-11-06T13:56:09.161Z,2.42
2022-11-06T13:59:15.197Z,3.00
2022-11-06T14:02:11.930Z,3.00
2022-11-06T14:05:33.597Z,3.00
2022-11-06T14:08:11.988Z,3.25
2022-11-06T14:10:53.855Z,3.55
2022-11-06T14:13:32.665Z,3.40
2022-11-06T14:16:26.631Z,3.13
2022-11-06T14:19:06.480Z,3.28
2022-11-06T14:22:01.811Z,3.65
2022-11-06T14:24:40.535Z,3.10
2022-11-06T14:27:21.697Z,2.95
2022-11-06T14:30:07.977Z,3.00
2022-11-06T14:32:42.996Z,3.30
2022-11-06T14:35:30.177Z,3.67
2022-11-06T14:38:27.265Z,3.35
2022-11-06T14:41:00.505Z,3.28
2022-11-06T14:43:34.631Z,4.10
2022-11-06T14:46:23.747Z,3.95
2022-11-06T14:49:07.003Z,3.90
2022-11-06T14:51:39.556Z,3.92
2022-11-06T14:54:23.331Z,3.85
2022-11-06T14:56:55.794Z,4.20
2022-11-06T14:59:37.927Z,4.22
2022-11-06T15:02:22.610Z,4.13
2022-11-06T15:05:05.750Z,4.13
2022-11-06T15:10:42.533Z,4.25
2022-11-06T15:13:17.706Z,4.60
2022-11-06T15:15:54.518Z,4.35
2022-11-06T15:18:27.670Z,4.07
2022-11-06T15:21:07.627Z,4.20
2022-11-06T15:23:42.361Z,4.00
2022-11-06T15:26:26.862Z,5.65
2022-11-06T15:29:11.882Z,4.65
2022-11-06T15:31:48.046Z,5.85
2022-11-06T15:34:34.027Z,6.28
2022-11-06T15:37:22.370Z,5.10
2022-11-06T15:40:00.567Z,5.70
2022-11-06T15:42:37.314Z,5.97
2022-11-06T15:45:22.061Z,5.03
2022-11-06T15:48:00.231Z,5.53
2022-11-06T15:50:33.364Z,4.90
2022-11-06T15:53:14.722Z,5.35
2022-11-06T15:55:55.519Z,5.07
2022-11-06T15:58:34.264Z,4.25
2022-11-06T16:01:08.082Z,5.20
2022-11-06T16:03:45.395Z,5.70
2022-11-06T16:06:18.171Z,5.63
2022-11-06T16:08:51.644Z,5.53
2022-11-06T16:11:23.983Z,5.03
2022-11-06T16:13:56.879Z,5.70
2022-11-06T16:16:45.380Z,4.93
2022-11-06T16:19:21.491Z,5.65
2022-11-06T16:22:02.286Z,5.35
2022-11-06T16:24:40.407Z,5.50
2022-11-06T16:27:14.280Z,5.60
2022-11-06T16:29:49.660Z,6.43
2022-11-06T16:32:26.329Z,6.90
2022-11-06T16:35:00.330Z,7.10
2022-11-06T16:37:38.218Z,6.53
2022-11-06T16:40:48.163Z,6.55
2022-11-06T16:43:22.035Z,7.13
2022-11-06T16:45:58.497Z,6.72
2022-11-06T16:48:45.199Z,7.50
2022-11-06T16:51:34.044Z,9.00
2022-11-06T16:54:18.481Z,7.47
2022-11-06T16:56:50.863Z,6.57
2022-11-06T16:59:26.725Z,6.07
2022-11-06T17:01:59.792Z,7.00
2022-11-06T17:04:32.010Z,8.55
2022-11-06T17:07:04.338Z,7.10
2022-11-06T17:09:36.702Z,7.47
2022-11-06T17:12:10.739Z,7.25
2022-11-06T17:14:44.507Z,7.47
2022-11-06T17:17:26.240Z,8.00
2022-11-06T17:19:58.426Z,9.55
2022-11-06T17:22:31.155Z,11.10
2022-11-06T17:25:03.204Z,12.47
2022-11-06T17:27:35.431Z,11.48
2022-11-06T17:30:14.617Z,16.58
2022-11-06T17:32:46.695Z,14.20
2022-11-06T17:35:18.843Z,12.63
2022-11-06T17:37:51.048Z,14.07
2022-11-06T17:40:23.061Z,16.67
2022-11-06T17:42:55.308Z,15.38
2022-11-06T17:45:27.331Z,17.58
2022-11-06T17:47:59.603Z,20.30
2022-11-06T17:50:51.670Z,20.67
2022-11-06T17:53:23.737Z,28.73
2022-11-06T17:55:56.385Z,22.77
2022-11-06T17:58:28.401Z,23.17
2022-11-06T18:01:11.126Z,26.27
2022-11-06T18:03:44.998Z,25.80
2022-11-06T18:06:17.369Z,24.95
2022-11-06T18:08:49.825Z,27.08
2022-11-06T18:11:22.731Z,27.33
2022-11-06T18:13:55.941Z,33.03
2022-11-06T18:16:32.235Z,31.10
2022-11-06T18:19:10.191Z,28.55
2022-11-06T18:21:42.349Z,28.38
2022-11-06T18:24:15.119Z,26.48
2022-11-06T18:26:47.448Z,25.97
2022-11-06T18:29:20.438Z,26.35
2022-11-06T18:31:52.804Z,30.05
2022-11-06T18:34:25.108Z,28.60
2022-11-06T18:36:57.163Z,26.90
2022-11-06T18:39:29.809Z,24.55
2022-11-06T18:42:02.302Z,25.95
2022-11-06T18:44:37.447Z,24.55
2022-11-06T18:47:09.522Z,26.27
2022-11-06T18:49:41.979Z,25.10
2022-11-06T18:52:23.413Z,23.50
2022-11-06T18:55:05.247Z,21.15
2022-11-06T18:57:37.592Z,19.75
2022-11-06T19:00:13.269Z,19.35
2022-11-06T19:02:45.705Z,17.70
2022-11-06T19:05:18.099Z,20.48
2022-11-06T19:07:53.822Z,18.13
2022-11-06T19:10:29.557Z,16.35
2022-11-06T19:13:01.787Z,15.95
2022-11-06T19:15:34.090Z,15.95
2022-11-06T19:18:06.545Z,17.92
2022-11-06T19:20:42.713Z,20.65
2022-11-06T19:23:15.888Z,24.92
2022-11-06T19:25:58.763Z,27.65
2022-11-06T19:28:37.102Z,30.75
2022-11-06T19:31:09.723Z,28.40
2022-11-06T19:33:42.108Z,21.50
2022-11-06T19:36:14.301Z,20.65
2022-11-06T19:38:46.814Z,19.10
2022-11-06T19:41:19.190Z,17.20
2022-11-06T19:43:51.261Z,15.98
2022-11-06T19:46:27.141Z,16.23
2022-11-06T19:49:01.895Z,18.05
2022-11-06T19:51:34.800Z,16.17
2022-11-06T19:54:07.839Z,16.17
2022-11-06T19:57:27.478Z,17.10
2022-11-06T19:59:32.293Z,15.48
2022-11-06T20:02:04.640Z,13.55
2022-11-06T20:04:36.815Z,12.75
2022-11-06T20:07:09.658Z,13.15
2022-11-06T20:09:41.933Z,13.27
2022-11-06T20:12:15.893Z,13.20
2022-11-06T20:14:49.056Z,13.40
2022-11-06T20:17:21.372Z,12.98
2022-11-06T20:19:53.528Z,12.68
2022-11-06T20:22:25.589Z,12.07
2022-11-06T20:24:57.676Z,14.10
2022-11-06T20:27:29.825Z,13.20
2022-11-06T20:30:07.704Z,14.02
2022-11-06T20:32:39.899Z,13.73
2022-11-06T20:35:15.985Z,12.68
2022-11-06T20:37:48.066Z,12.95
2022-11-06T20:40:20.526Z,10.77
2022-11-06T20:42:52.752Z,11.63
2022-11-06T20:45:24.800Z,10.73
2022-11-06T20:47:56.918Z,10.52
2022-11-06T20:50:29.282Z,10.35
2022-11-06T20:53:01.264Z,9.35
2022-11-06T20:55:34.841Z,10.52
2022-11-06T20:58:06.908Z,10.32
2022-11-06T21:00:38.918Z,10.85
2022-11-06T21:03:11.086Z,9.93
2022-11-06T21:05:43.136Z,11.30
2022-11-06T21:08:15.177Z,9.55
2022-11-06T21:11:04.868Z,10.55
2022-11-06T21:13:40.573Z,10.20
2022-11-06T21:16:14.102Z,10.57
2022-11-06T21:18:46.833Z,8.85
2022-11-06T21:21:21.859Z,8.30
2022-11-06T21:23:54.712Z,8.88
2022-11-06T21:26:33.435Z,9.65
2022-11-06T21:29:08.473Z,7.75
2022-11-06T21:31:47.558Z,8.60
2022-11-06T21:34:21.714Z,8.57
2022-11-06T21:36:57.028Z,9.10
2022-11-06T21:39:36.430Z,8.70
2022-11-06T21:42:09.318Z,8.23
2022-11-06T21:44:42.446Z,9.52
2022-11-06T21:47:14.849Z,7.82
2022-11-06T21:49:54.261Z,4.88
2022-11-06T21:52:45.078Z,4.47
2022-11-06T21:55:35.979Z,4.55
2022-11-06T21:58:08.843Z,3.00
2022-11-06T22:00:41.366Z,2.42
2022-11-06T22:03:14.565Z,2.05
2022-11-06T22:05:47.373Z,1.60
2022-11-06T22:08:20.010Z,2.03
2022-11-06T22:10:52.410Z,1.90
2022-11-06T22:13:25.055Z,2.08
2022-11-06T22:16:01.052Z,2.55
2022-11-06T22:18:33.573Z,1.42
2022-11-06T22:21:10.173Z,1.67
2022-11-06T22:23:43.656Z,2.13
2022-11-06T22:28:57.816Z,1.88
2022-11-06T22:31:30.942Z,2.15
2022-11-06T22:34:04.063Z,1.58
2022-11-06T22:36:37.543Z,2.10
2022-11-06T22:39:11.263Z,2.40
2022-11-06T22:41:43.929Z,1.70
2022-11-06T22:44:16.930Z,1.80
2022-11-06T22:46:49.665Z,2.20
2022-11-06T22:49:22.565Z,1.80
2022-11-06T22:51:55.069Z,1.77
2022-11-06T22:54:27.468Z,2.05
2022-11-06T22:56:59.871Z,1.70
2022-11-06T22:59:32.510Z,1.77
2022-11-06T23:02:05.000Z,1.33
2022-11-06T23:04:37.817Z,1.53
2022-11-06T23:07:10.319Z,1.88
2022-11-06T23:09:42.956Z,1.38
2022-11-06T23:12:18.476Z,1.50
2022-11-06T23:14:50.879Z,1.58
2022-11-06T23:17:23.283Z,1.42
2022-11-06T23:19:56.040Z,1.63
2022-11-06T23:22:37.807Z,1.90
2022-11-06T23:25:11.405Z,2.10
2022-11-06T23:30:22.208Z,2.00
2022-11-06T23:32:54.725Z,1.88
2022-11-06T23:35:32.413Z,1.90
2022-11-06T23:38:05.408Z,1.75
2022-11-06T23:40:38.049Z,1.95
2022-11-06T23:43:11.271Z,1.90
2022-11-06T23:45:49.816Z,6.53
2022-11-06T23:48:22.221Z,3.83
2022-11-06T23:50:54.855Z,3.83
2022-11-06T23:53:27.622Z,2.20
2022-11-06T23:56:06.028Z,1.70
2022-11-06T23:58:39.984Z,1.38
